EDT,Max TemperatureF,Mean TemperatureF,Min TemperatureF,Max Dew PointF,MeanDew PointF,Min DewpointF,Max Humidity, Mean Humidity, Min Humidity, Max Sea Level PressureIn, Mean Sea Level PressureIn, Min Sea Level PressureIn, Max VisibilityMiles, Mean VisibilityMiles, Min VisibilityMiles, Max Wind SpeedMPH, Mean Wind SpeedMPH, Max Gust SpeedMPH,PrecipitationIn, CloudCover, Events, WindDirDegrees
2013-10-1,80,64,49,64,58,49,100,84,49,30.22,30.16,30.11,10,9,2,6,1,,0.00,0,,17
2013-10-2,83,67,51,67,60,52,100,83,48,30.21,30.17,30.12,10,9,4,5,0,,0.00,0,,326
2013-10-3,84,69,54,66,61,55,100,81,46,30.21,30.16,30.11,10,8,1,6,0,,0.00,1,,105
2013-10-4,85,70,55,68,62,55,100,82,46,30.21,30.17,30.13,10,8,2,6,0,,0.00,0,,17
2013-10-5,87,71,55,68,63,55,100,82,45,30.19,30.14,30.07,10,8,2,8,0,,0.00,1,,72
2013-10-6,85,71,57,71,65,58,100,83,51,30.10,30.02,29.93,10,8,0,10,1,,0.00,2,,148
2013-10-7,78,74,69,74,72,69,100,93,81,29.98,29.91,29.87,10,9,2,7,4,,0.00,5,,257
2013-10-8,69,63,57,68,57,53,100,79,68,30.20,30.10,29.98,10,10,5,17,8,29,0.00,6,,46
2013-10-9,76,63,50,54,52,49,100,71,39,30.24,30.19,30.13,10,10,10,13,6,18,0.00,3,,30
2013-10-10,78,61,44,59,53,44,100,81,46,30.17,30.11,30.04,10,10,10,9,1,9,0.00,0,,318
2013-10-11,82,65,48,62,57,48,100,81,45,30.08,30.03,29.98,10,10,7,12,1,,0.00,0,,294
2013-10-12,81,66,50,65,59,50,100,83,48,30.13,30.07,30.01,10,10,3,8,1,,0.00,3,,336
2013-10-13,75,68,61,68,65,61,100,93,71,30.23,30.18,30.12,10,10,7,9,1,,0.00,7,,21
2013-10-14,68,64,59,65,63,59,100,95,86,30.25,30.21,30.18,10,10,5,10,4,,0.00,7,,40
2013-10-15,73,66,57,64,60,58,100,86,58,30.21,30.15,30.08,10,10,10,10,5,16,0.00,5,,38
2013-10-16,77,64,52,65,59,53,100,86,56,30.12,30.07,30.01,10,8,2,6,0,,0.00,3,,323
2013-10-17,81,70,58,70,65,58,100,90,61,30.03,29.98,29.94,10,9,4,10,1,16,0.00,5,,233
2013-10-18,77,70,63,68,66,64,100,90,66,30.06,30.00,29.95,10,9,3,7,1,,0.00,6,,270
2013-10-19,69,64,58,64,58,55,100,88,62,30.03,29.99,29.96,10,10,7,10,1,,0.00,5,,264
2013-10-20,73,59,45,57,52,45,100,82,43,30.11,30.06,30.00,10,8,1,8,1,,0.00,0,,303
2013-10-21,71,58,46,59,54,46,100,87,61,30.18,30.12,30.07,10,9,5,5,0,,0.00,3,,82
2013-10-22,68,62,56,63,60,57,100,95,81,30.10,29.99,29.90,10,9,2,4,0,,0.00,6,,200
2013-10-23,68,56,44,59,47,38,100,72,34,30.13,29.94,29.86,10,8,0,23,5,28,0.00,1,,282
2013-10-24,66,49,32,47,39,32,100,76,36,30.26,30.19,30.13,10,10,10,10,1,,0.00,1,,233
2013-10-25,58,46,33,44,39,33,100,81,41,30.40,30.33,30.22,10,10,5,10,3,9,0.00,1,,352
2013-10-26,62,44,27,41,35,28,100,77,38,30.39,30.31,30.21,10,10,4,9,1,,0.00,0,,271
2013-10-27,71,54,37,57,48,38,100,81,54,30.20,30.17,30.13,10,10,10,13,1,16,0.00,1,,275
2013-10-28,68,60,53,60,56,53,100,90,64,30.33,30.26,30.18,10,9,2,5,0,,0.00,6,,301
2013-10-29,73,60,46,60,55,47,100,85,58,30.39,30.33,30.30,10,8,1,6,0,,0.00,3,,320
2013-10-30,78,64,49,60,55,50,100,81,48,30.37,30.30,30.23,10,9,2,8,1,,0.00,1,,240
2013-10-31,78,65,52,66,60,52,100,81,61,30.24,30.13,29.99,10,10,2,12,2,25,0.00,1,,175